sensor_id;sensor_type;location;lat;lon;timestamp;P1;durP1;ratioP1;P2;durP2;ratioP2
20203;SDS011;10261;49.010;12.034;2022-07-23T00:00:44;10.77;;;9.77;;
20203;SDS011;10261;49.010;12.034;2022-07-23T00:01:47;10.52;;;9.52;;
20203;SDS011;10261;49.010;12.034;2022-07-23T00:02:50;12.35;;;9.95;;
20203;SDS011;10261;49.010;12.034;2022-07-23T00:03:55;13.18;;;10.50;;
20203;SDS011;10261;49.010;12.034;2022-07-23T00:04:58;11.55;;;10.43;;
20203;SDS011;10261;49.010;12.034;2022-07-23T00:06:00;16.95;;;11.25;;
20203;SDS011;10261;49.010;12.034;2022-07-23T00:07:09;12.50;;;9.93;;
20203;SDS011;10261;49.010;12.034;2022-07-23T00:08:11;11.32;;;10.13;;
20203;SDS011;10261;49.010;12.034;2022-07-23T00:09:14;13.38;;;10.45;;
20203;SDS011;10261;49.010;12.034;2022-07-23T00:10:16;11.50;;;10.23;;
20203;SDS011;10261;49.010;12.034;2022-07-23T00:11:19;12.68;;;10.98;;
20203;SDS011;10261;49.010;12.034;2022-07-23T00:12:23;12.23;;;9.55;;
20203;SDS011;10261;49.010;12.034;2022-07-23T00:13:26;11.27;;;10.05;;
20203;SDS011;10261;49.010;12.034;2022-07-23T00:14:29;12.52;;;10.43;;
20203;SDS011;10261;49.010;12.034;2022-07-23T00:15:31;11.82;;;10.73;;
20203;SDS011;10261;49.010;12.034;2022-07-23T00:16:34;11.93;;;10.70;;
20203;SDS011;10261;49.010;12.034;2022-07-23T00:17:36;11.65;;;9.38;;
20203;SDS011;10261;49.010;12.034;2022-07-23T00:18:39;11.00;;;9.90;;
20203;SDS011;10261;49.010;12.034;2022-07-23T00:19:43;12.55;;;10.73;;
20203;SDS011;10261;49.010;12.034;2022-07-23T00:20:46;10.95;;;9.95;;
20203;SDS011;10261;49.010;12.034;2022-07-23T00:21:48;12.43;;;11.13;;
20203;SDS011;10261;49.010;12.034;2022-07-23T00:22:52;12.88;;;9.52;;
20203;SDS011;10261;49.010;12.034;2022-07-23T00:23:55;11.70;;;10.50;;
20203;SDS011;10261;49.010;12.034;2022-07-23T00:24:58;13.63;;;10.68;;
20203;SDS011;10261;49.010;12.034;2022-07-23T00:26:20;12.05;;;10.85;;
20203;SDS011;10261;49.010;12.034;2022-07-23T00:27:23;11.48;;;10.27;;
20203;SDS011;10261;49.010;12.034;2022-07-23T00:28:26;12.07;;;9.98;;
20203;SDS011;10261;49.010;12.034;2022-07-23T00:29:29;15.68;;;11.50;;
20203;SDS011;10261;49.010;12.034;2022-07-23T00:30:31;11.30;;;10.10;;
20203;SDS011;10261;49.010;12.034;2022-07-23T00:31:34;13.60;;;11.90;;
20203;SDS011;10261;49.010;12.034;2022-07-23T00:32:44;13.70;;;10.90;;
20203;SDS011;10261;49.010;12.034;2022-07-23T00:33:56;13.27;;;11.05;;
20203;SDS011;10261;49.010;12.034;2022-07-23T00:35:05;12.07;;;10.30;;
20203;SDS011;10261;49.010;12.034;2022-07-23T00:36:08;12.45;;;10.50;;
20203;SDS011;10261;49.010;12.034;2022-07-23T00:37:11;11.82;;;10.20;;
20203;SDS011;10261;49.010;12.034;2022-07-23T00:38:13;12.88;;;10.35;;
20203;SDS011;10261;49.010;12.034;2022-07-23T00:39:16;11.30;;;9.90;;
20203;SDS011;10261;49.010;12.034;2022-07-23T00:40:18;13.60;;;10.43;;
20203;SDS011;10261;49.010;12.034;2022-07-23T00:41:21;11.10;;;10.00;;
20203;SDS011;10261;49.010;12.034;2022-07-23T00:42:23;14.65;;;11.45;;
20203;SDS011;10261;49.010;12.034;2022-07-23T00:43:26;12.95;;;11.27;;
20203;SDS011;10261;49.010;12.034;2022-07-23T00:44:28;11.70;;;10.60;;
20203;SDS011;10261;49.010;12.034;2022-07-23T00:45:31;12.20;;;10.70;;
20203;SDS011;10261;49.010;12.034;2022-07-23T00:46:34;15.20;;;10.88;;
20203;SDS011;10261;49.010;12.034;2022-07-23T00:47:37;12.00;;;10.80;;
20203;SDS011;10261;49.010;12.034;2022-07-23T00:48:39;15.07;;;10.68;;
20203;SDS011;10261;49.010;12.034;2022-07-23T00:49:42;12.60;;;11.25;;
20203;SDS011;10261;49.010;12.034;2022-07-23T00:50:46;11.32;;;10.18;;
20203;SDS011;10261;49.010;12.034;2022-07-23T00:51:49;12.32;;;10.30;;
20203;SDS011;10261;49.010;12.034;2022-07-23T00:52:51;13.50;;;12.10;;
20203;SDS011;10261;49.010;12.034;2022-07-23T00:53:54;15.10;;;12.13;;
20203;SDS011;10261;49.010;12.034;2022-07-23T00:54:57;12.43;;;11.05;;
20203;SDS011;10261;49.010;12.034;2022-07-23T00:56:00;14.93;;;11.68;;
20203;SDS011;10261;49.010;12.034;2022-07-23T00:57:02;15.55;;;11.27;;
20203;SDS011;10261;49.010;12.034;2022-07-23T00:58:06;11.48;;;10.05;;
20203;SDS011;10261;49.010;12.034;2022-07-23T00:59:08;15.02;;;11.77;;
20203;SDS011;10261;49.010;12.034;2022-07-23T01:00:12;14.27;;;11.40;;
20203;SDS011;10261;49.010;12.034;2022-07-23T01:01:15;12.48;;;11.18;;
20203;SDS011;10261;49.010;12.034;2022-07-23T01:02:18;12.15;;;10.77;;
20203;SDS011;10261;49.010;12.034;2022-07-23T01:03:20;14.75;;;11.68;;
20203;SDS011;10261;49.010;12.034;2022-07-23T01:04:24;12.88;;;11.32;;
20203;SDS011;10261;49.010;12.034;2022-07-23T01:05:26;12.93;;;11.63;;
20203;SDS011;10261;49.010;12.034;2022-07-23T01:06:31;12.55;;;11.07;;
20203;SDS011;10261;49.010;12.034;2022-07-23T01:07:37;11.20;;;10.05;;
20203;SDS011;10261;49.010;12.034;2022-07-23T01:08:40;10.52;;;9.45;;
20203;SDS011;10261;49.010;12.034;2022-07-23T01:09:43;11.57;;;10.38;;
20203;SDS011;10261;49.010;12.034;2022-07-23T01:10:48;12.90;;;10.75;;
20203;SDS011;10261;49.010;12.034;2022-07-23T01:11:53;11.90;;;10.70;;
20203;SDS011;10261;49.010;12.034;2022-07-23T01:12:57;11.13;;;9.82;;
20203;SDS011;10261;49.010;12.034;2022-07-23T01:13:59;12.23;;;11.02;;
20203;SDS011;10261;49.010;12.034;2022-07-23T01:15:09;13.60;;;10.60;;
20203;SDS011;10261;49.010;12.034;2022-07-23T01:16:13;14.25;;;11.30;;
20203;SDS011;10261;49.010;12.034;2022-07-23T01:17:16;11.80;;;10.70;;
20203;SDS011;10261;49.010;12.034;2022-07-23T01:18:19;12.30;;;11.10;;
20203;SDS011;10261;49.010;12.034;2022-07-23T01:19:22;11.93;;;10.68;;
20203;SDS011;10261;49.010;12.034;2022-07-23T01:20:24;14.07;;;10.45;;
20203;SDS011;10261;49.010;12.034;2022-07-23T01:21:27;12.80;;;10.23;;
20203;SDS011;10261;49.010;12.034;2022-07-23T01:22:31;12.50;;;11.32;;
20203;SDS011;10261;49.010;12.034;2022-07-23T01:23:34;12.07;;;10.32;;
20203;SDS011;10261;49.010;12.034;2022-07-23T01:24:36;14.60;;;10.82;;
20203;SDS011;10261;49.010;12.034;2022-07-23T01:25:46;11.85;;;9.98;;
20203;SDS011;10261;49.010;12.034;2022-07-23T01:26:49;11.73;;;10.60;;
20203;SDS011;10261;49.010;12.034;2022-07-23T01:27:52;13.75;;;12.45;;
20203;SDS011;10261;49.010;12.034;2022-07-23T01:28:54;14.63;;;11.38;;
20203;SDS011;10261;49.010;12.034;2022-07-23T01:29:59;11.68;;;10.50;;
20203;SDS011;10261;49.010;12.034;2022-07-23T01:31:01;12.32;;;11.02;;
20203;SDS011;10261;49.010;12.034;2022-07-23T01:32:05;12.57;;;11.10;;
20203;SDS011;10261;49.010;12.034;2022-07-23T01:33:07;14.05;;;11.18;;
20203;SDS011;10261;49.010;12.034;2022-07-23T01:34:10;13.48;;;10.55;;
20203;SDS011;10261;49.010;12.034;2022-07-23T01:35:12;12.93;;;11.18;;
20203;SDS011;10261;49.010;12.034;2022-07-23T01:36:15;12.68;;;11.38;;
20203;SDS011;10261;49.010;12.034;2022-07-23T01:37:17;13.10;;;10.90;;
20203;SDS011;10261;49.010;12.034;2022-07-23T01:38:22;16.58;;;12.15;;
20203;SDS011;10261;49.010;12.034;2022-07-23T01:39:24;14.65;;;11.50;;
20203;SDS011;10261;49.010;12.034;2022-07-23T01:40:28;12.65;;;11.45;;
20203;SDS011;10261;49.010;12.034;2022-07-23T01:41:30;12.20;;;10.00;;
20203;SDS011;10261;49.010;12.034;2022-07-23T01:42:35;13.43;;;11.85;;
20203;SDS011;10261;49.010;12.034;2022-07-23T01:43:38;14.07;;;11.30;;
20203;SDS011;10261;49.010;12.034;2022-07-23T01:44:41;13.48;;;12.18;;
20203;SDS011;10261;49.010;12.034;2022-07-23T01:45:43;11.90;;;10.68;;
20203;SDS011;10261;49.010;12.034;2022-07-23T01:46:46;14.70;;;11.18;;
20203;SDS011;10261;49.010;12.034;2022-07-23T01:47:48;16.63;;;10.70;;
20203;SDS011;10261;49.010;12.034;2022-07-23T01:48:51;14.90;;;10.52;;
20203;SDS011;10261;49.010;12.034;2022-07-23T01:49:54;12.90;;;11.60;;
20203;SDS011;10261;49.010;12.034;2022-07-23T01:50:57;18.10;;;11.95;;
20203;SDS011;10261;49.010;12.034;2022-07-23T01:51:59;13.95;;;12.45;;
20203;SDS011;10261;49.010;12.034;2022-07-23T01:53:02;13.10;;;11.57;;
20203;SDS011;10261;49.010;12.034;2022-07-23T01:54:05;14.32;;;11.20;;
20203;SDS011;10261;49.010;12.034;2022-07-23T01:55:08;11.63;;;10.57;;
20203;SDS011;10261;49.010;12.034;2022-07-23T01:56:18;14.02;;;11.32;;
20203;SDS011;10261;49.010;12.034;2022-07-23T01:57:22;14.07;;;11.25;;
20203;SDS011;10261;49.010;12.034;2022-07-23T01:58:24;14.05;;;12.45;;
20203;SDS011;10261;49.010;12.034;2022-07-23T01:59:27;17.08;;;12.02;;
20203;SDS011;10261;49.010;12.034;2022-07-23T02:00:29;14.77;;;11.50;;
20203;SDS011;10261;49.010;12.034;2022-07-23T02:01:32;12.35;;;10.80;;
20203;SDS011;10261;49.010;12.034;2022-07-23T02:02:34;16.48;;;13.23;;
20203;SDS011;10261;49.010;12.034;2022-07-23T02:03:38;13.52;;;11.77;;
20203;SDS011;10261;49.010;12.034;2022-07-23T02:04:40;14.38;;;11.32;;
20203;SDS011;10261;49.010;12.034;2022-07-23T02:05:43;13.73;;;11.90;;
20203;SDS011;10261;49.010;12.034;2022-07-23T02:06:45;13.27;;;10.85;;
20203;SDS011;10261;49.010;12.034;2022-07-23T02:07:48;13.13;;;11.77;;
20203;SDS011;10261;49.010;12.034;2022-07-23T02:08:50;12.07;;;10.85;;
20203;SDS011;10261;49.010;12.034;2022-07-23T02:09:54;14.57;;;11.77;;
20203;SDS011;10261;49.010;12.034;2022-07-23T02:10:56;13.98;;;11.88;;
20203;SDS011;10261;49.010;12.034;2022-07-23T02:12:00;19.13;;;13.50;;
20203;SDS011;10261;49.010;12.034;2022-07-23T02:13:02;12.65;;;11.18;;
20203;SDS011;10261;49.010;12.034;2022-07-23T02:14:05;14.25;;;12.27;;
20203;SDS011;10261;49.010;12.034;2022-07-23T02:15:07;12.10;;;10.90;;
20203;SDS011;10261;49.010;12.034;2022-07-23T02:16:12;13.43;;;11.07;;
20203;SDS011;10261;49.010;12.034;2022-07-23T02:17:14;12.95;;;11.65;;
20203;SDS011;10261;49.010;12.034;2022-07-23T02:18:17;13.65;;;10.82;;
20203;SDS011;10261;49.010;12.034;2022-07-23T02:19:19;12.98;;;10.85;;
20203;SDS011;10261;49.010;12.034;2022-07-23T02:20:22;12.63;;;9.60;;
20203;SDS011;10261;49.010;12.034;2022-07-23T02:21:25;13.65;;;10.73;;
20203;SDS011;10261;49.010;12.034;2022-07-23T02:22:28;11.98;;;10.60;;
20203;SDS011;10261;49.010;12.034;2022-07-23T02:23:30;13.75;;;9.48;;
20203;SDS011;10261;49.010;12.034;2022-07-23T02:24:33;15.50;;;11.27;;
20203;SDS011;10261;49.010;12.034;2022-07-23T02:25:36;13.85;;;11.02;;
20203;SDS011;10261;49.010;12.034;2022-07-23T02:26:39;18.27;;;10.27;;
20203;SDS011;10261;49.010;12.034;2022-07-23T02:27:42;15.43;;;9.82;;
20203;SDS011;10261;49.010;12.034;2022-07-23T02:28:45;16.05;;;11.20;;
20203;SDS011;10261;49.010;12.034;2022-07-23T02:29:47;11.55;;;10.45;;
20203;SDS011;10261;49.010;12.034;2022-07-23T02:30:50;11.20;;;9.57;;
20203;SDS011;10261;49.010;12.034;2022-07-23T02:31:52;13.45;;;11.60;;
20203;SDS011;10261;49.010;12.034;2022-07-23T02:32:55;11.35;;;10.15;;
20203;SDS011;10261;49.010;12.034;2022-07-23T02:33:57;19.25;;;11.23;;
20203;SDS011;10261;49.010;12.034;2022-07-23T02:35:00;12.38;;;9.80;;
20203;SDS011;10261;49.010;12.034;2022-07-23T02:36:02;11.18;;;10.00;;
20203;SDS011;10261;49.010;12.034;2022-07-23T02:37:06;12.18;;;10.75;;
20203;SDS011;10261;49.010;12.034;2022-07-23T02:38:09;14.85;;;9.57;;
20203;SDS011;10261;49.010;12.034;2022-07-23T02:39:12;11.02;;;9.93;;
20203;SDS011;10261;49.010;12.034;2022-07-23T02:40:15;11.15;;;9.93;;
20203;SDS011;10261;49.010;12.034;2022-07-23T02:41:20;14.25;;;11.00;;
20203;SDS011;10261;49.010;12.034;2022-07-23T02:42:22;16.50;;;11.65;;
20203;SDS011;10261;49.010;12.034;2022-07-23T02:43:25;15.90;;;10.57;;
20203;SDS011;10261;49.010;12.034;2022-07-23T02:44:27;14.35;;;10.75;;
20203;SDS011;10261;49.010;12.034;2022-07-23T02:45:30;15.25;;;10.77;;
20203;SDS011;10261;49.010;12.034;2022-07-23T02:46:32;13.00;;;10.50;;
20203;SDS011;10261;49.010;12.034;2022-07-23T02:47:35;11.60;;;9.60;;
20203;SDS011;10261;49.010;12.034;2022-07-23T02:48:37;10.98;;;10.02;;
20203;SDS011;10261;49.010;12.034;2022-07-23T02:49:40;12.02;;;9.88;;
20203;SDS011;10261;49.010;12.034;2022-07-23T02:50:42;21.50;;;11.68;;
20203;SDS011;10261;49.010;12.034;2022-07-23T02:51:45;11.25;;;10.02;;
20203;SDS011;10261;49.010;12.034;2022-07-23T02:52:47;13.50;;;9.90;;
20203;SDS011;10261;49.010;12.034;2022-07-23T02:53:50;10.52;;;9.45;;
20203;SDS011;10261;49.010;12.034;2022-07-23T02:54:52;10.32;;;9.18;;
20203;SDS011;10261;49.010;12.034;2022-07-23T02:55:56;13.43;;;9.77;;
20203;SDS011;10261;49.010;12.034;2022-07-23T02:56:59;10.68;;;9.55;;
20203;SDS011;10261;49.010;12.034;2022-07-23T02:58:02;10.45;;;9.50;;
20203;SDS011;10261;49.010;12.034;2022-07-23T02:59:04;16.67;;;10.23;;
20203;SDS011;10261;49.010;12.034;2022-07-23T03:00:08;10.98;;;9.55;;
20203;SDS011;10261;49.010;12.034;2022-07-23T03:01:10;10.65;;;9.57;;
20203;SDS011;10261;49.010;12.034;2022-07-23T03:02:14;12.05;;;9.52;;
20203;SDS011;10261;49.010;12.034;2022-07-23T03:03:16;12.25;;;9.73;;
20203;SDS011;10261;49.010;12.034;2022-07-23T03:04:19;27.15;;;10.75;;
20203;SDS011;10261;49.010;12.034;2022-07-23T03:05:21;12.23;;;9.02;;
20203;SDS011;10261;49.010;12.034;2022-07-23T03:06:24;14.98;;;9.75;;
20203;SDS011;10261;49.010;12.034;2022-07-23T03:07:26;9.43;;;8.50;;
20203;SDS011;10261;49.010;12.034;2022-07-23T03:08:29;12.95;;;10.45;;
20203;SDS011;10261;49.010;12.034;2022-07-23T03:09:31;13.82;;;9.82;;
20203;SDS011;10261;49.010;12.034;2022-07-23T03:10:34;11.35;;;9.85;;
20203;SDS011;10261;49.010;12.034;2022-07-23T03:11:36;12.55;;;9.45;;
20203;SDS011;10261;49.010;12.034;2022-07-23T03:12:40;12.75;;;10.00;;
20203;SDS011;10261;49.010;12.034;2022-07-23T03:13:43;13.40;;;9.80;;
20203;SDS011;10261;49.010;12.034;2022-07-23T03:14:46;25.75;;;9.70;;
20203;SDS011;10261;49.010;12.034;2022-07-23T03:15:48;13.85;;;9.30;;
20203;SDS011;10261;49.010;12.034;2022-07-23T03:16:51;10.05;;;9.05;;
20203;SDS011;10261;49.010;12.034;2022-07-23T03:17:54;9.95;;;8.85;;
20203;SDS011;10261;49.010;12.034;2022-07-23T03:18:57;10.00;;;9.00;;
20203;SDS011;10261;49.010;12.034;2022-07-23T03:20:00;13.85;;;10.65;;
20203;SDS011;10261;49.010;12.034;2022-07-23T03:21:03;11.15;;;9.57;;
20203;SDS011;10261;49.010;12.034;2022-07-23T03:22:05;9.82;;;8.45;;
20203;SDS011;10261;49.010;12.034;2022-07-23T03:23:09;9.57;;;7.97;;
20203;SDS011;10261;49.010;12.034;2022-07-23T03:24:11;10.88;;;8.65;;
20203;SDS011;10261;49.010;12.034;2022-07-23T03:25:14;9.10;;;8.15;;
20203;SDS011;10261;49.010;12.034;2022-07-23T03:26:16;9.98;;;7.53;;
20203;SDS011;10261;49.010;12.034;2022-07-23T03:27:19;12.75;;;9.43;;
20203;SDS011;10261;49.010;12.034;2022-07-23T03:28:22;10.73;;;9.00;;
20203;SDS011;10261;49.010;12.034;2022-07-23T03:29:25;11.45;;;9.15;;
20203;SDS011;10261;49.010;12.034;2022-07-23T03:30:27;10.60;;;9.50;;
20203;SDS011;10261;49.010;12.034;2022-07-23T03:31:30;11.13;;;9.52;;
20203;SDS011;10261;49.010;12.034;2022-07-23T03:32:33;10.45;;;8.27;;
20203;SDS011;10261;49.010;12.034;2022-07-23T03:33:36;9.98;;;8.93;;
20203;SDS011;10261;49.010;12.034;2022-07-23T03:34:38;9.48;;;8.55;;
20203;SDS011;10261;49.010;12.034;2022-07-23T03:35:42;12.15;;;9.35;;
20203;SDS011;10261;49.010;12.034;2022-07-23T03:36:47;11.50;;;9.15;;
20203;SDS011;10261;49.010;12.034;2022-07-23T03:37:50;10.35;;;8.15;;
20203;SDS011;10261;49.010;12.034;2022-07-23T03:38:52;10.20;;;8.30;;
20203;SDS011;10261;49.010;12.034;2022-07-23T03:39:55;10.05;;;8.10;;
20203;SDS011;10261;49.010;12.034;2022-07-23T03:40:57;10.00;;;8.68;;
20203;SDS011;10261;49.010;12.034;2022-07-23T03:42:03;10.93;;;8.45;;
20203;SDS011;10261;49.010;12.034;2022-07-23T03:43:05;11.10;;;8.85;;
20203;SDS011;10261;49.010;12.034;2022-07-23T03:44:09;13.85;;;9.32;;
20203;SDS011;10261;49.010;12.034;2022-07-23T03:45:12;11.38;;;8.68;;
20203;SDS011;10261;49.010;12.034;2022-07-23T03:46:15;11.27;;;8.27;;
20203;SDS011;10261;49.010;12.034;2022-07-23T03:47:17;8.70;;;7.80;;
20203;SDS011;10261;49.010;12.034;2022-07-23T03:48:22;9.20;;;7.35;;
20203;SDS011;10261;49.010;12.034;2022-07-23T03:49:24;8.20;;;7.40;;
20203;SDS011;10261;49.010;12.034;2022-07-23T03:50:28;11.52;;;8.38;;
20203;SDS011;10261;49.010;12.034;2022-07-23T03:51:30;8.43;;;7.63;;
20203;SDS011;10261;49.010;12.034;2022-07-23T03:52:33;11.23;;;8.27;;
20203;SDS011;10261;49.010;12.034;2022-07-23T03:53:36;8.45;;;7.63;;
20203;SDS011;10261;49.010;12.034;2022-07-23T03:54:39;8.95;;;8.05;;
20203;SDS011;10261;49.010;12.034;2022-07-23T03:55:41;8.35;;;7.05;;
20203;SDS011;10261;49.010;12.034;2022-07-23T03:56:44;9.73;;;8.30;;
20203;SDS011;10261;49.010;12.034;2022-07-23T03:57:46;15.02;;;8.25;;
20203;SDS011;10261;49.010;12.034;2022-07-23T03:58:49;10.40;;;8.18;;
20203;SDS011;10261;49.010;12.034;2022-07-23T03:59:53;12.35;;;7.88;;
20203;SDS011;10261;49.010;12.034;2022-07-23T04:00:56;10.77;;;8.43;;
20203;SDS011;10261;49.010;12.034;2022-07-23T04:01:58;8.07;;;7.28;;
20203;SDS011;10261;49.010;12.034;2022-07-23T04:03:01;9.73;;;8.38;;
20203;SDS011;10261;49.010;12.034;2022-07-23T04:04:03;9.80;;;8.23;;
20203;SDS011;10261;49.010;12.034;2022-07-23T04:05:06;8.60;;;7.80;;
20203;SDS011;10261;49.010;12.034;2022-07-23T04:06:09;12.73;;;7.95;;
20203;SDS011;10261;49.010;12.034;2022-07-23T04:07:12;8.55;;;7.63;;
20203;SDS011;10261;49.010;12.034;2022-07-23T04:08:14;11.65;;;7.78;;
20203;SDS011;10261;49.010;12.034;2022-07-23T04:09:17;8.70;;;7.80;;
20203;SDS011;10261;49.010;12.034;2022-07-23T04:10:21;8.20;;;7.40;;
20203;SDS011;10261;49.010;12.034;2022-07-23T04:11:24;11.60;;;8.77;;
20203;SDS011;10261;49.010;12.034;2022-07-23T04:12:26;15.50;;;9.52;;
20203;SDS011;10261;49.010;12.034;2022-07-23T04:13:29;11.05;;;9.07;;
20203;SDS011;10261;49.010;12.034;2022-07-23T04:14:31;9.32;;;8.43;;
20203;SDS011;10261;49.010;12.034;2022-07-23T04:15:35;9.73;;;7.45;;
20203;SDS011;10261;49.010;12.034;2022-07-23T04:16:39;12.88;;;7.75;;
20203;SDS011;10261;49.010;12.034;2022-07-23T04:17:42;15.00;;;7.07;;
20203;SDS011;10261;49.010;12.034;2022-07-23T04:18:45;8.77;;;7.85;;
20203;SDS011;10261;49.010;12.034;2022-07-23T04:19:48;9.93;;;7.50;;
20203;SDS011;10261;49.010;12.034;2022-07-23T04:20:51;9.48;;;7.90;;
20203;SDS011;10261;49.010;12.034;2022-07-23T04:21:53;10.10;;;7.95;;
20203;SDS011;10261;49.010;12.034;2022-07-23T04:22:56;10.20;;;7.82;;
20203;SDS011;10261;49.010;12.034;2022-07-23T04:23:58;8.45;;;7.53;;
20203;SDS011;10261;49.010;12.034;2022-07-23T04:25:01;9.30;;;8.15;;
20203;SDS011;10261;49.010;12.034;2022-07-23T04:26:04;7.95;;;6.80;;
20203;SDS011;10261;49.010;12.034;2022-07-23T04:27:07;11.07;;;8.13;;
20203;SDS011;10261;49.010;12.034;2022-07-23T04:28:09;9.60;;;8.70;;
20203;SDS011;10261;49.010;12.034;2022-07-23T04:29:12;8.98;;;7.65;;
20203;SDS011;10261;49.010;12.034;2022-07-23T04:30:14;10.95;;;7.53;;
20203;SDS011;10261;49.010;12.034;2022-07-23T04:31:18;8.90;;;8.00;;
20203;SDS011;10261;49.010;12.034;2022-07-23T04:32:20;9.10;;;7.63;;
20203;SDS011;10261;49.010;12.034;2022-07-23T04:33:23;12.35;;;7.60;;
20203;SDS011;10261;49.010;12.034;2022-07-23T04:34:26;10.27;;;8.10;;
20203;SDS011;10261;49.010;12.034;2022-07-23T04:35:28;7.90;;;7.20;;
20203;SDS011;10261;49.010;12.034;2022-07-23T04:36:31;8.82;;;8.00;;
20203;SDS011;10261;49.010;12.034;2022-07-23T04:37:34;9.32;;;8.30;;
20203;SDS011;10261;49.010;12.034;2022-07-23T04:38:36;9.95;;;8.10;;
20203;SDS011;10261;49.010;12.034;2022-07-23T04:39:39;9.43;;;8.45;;
20203;SDS011;10261;49.010;12.034;2022-07-23T04:40:41;9.82;;;8.07;;
20203;SDS011;10261;49.010;12.034;2022-07-23T04:41:44;8.55;;;7.65;;
20203;SDS011;10261;49.010;12.034;2022-07-23T04:42:46;10.38;;;8.63;;
20203;SDS011;10261;49.010;12.034;2022-07-23T04:43:49;9.80;;;7.15;;
20203;SDS011;10261;49.010;12.034;2022-07-23T04:44:51;8.88;;;7.97;;
20203;SDS011;10261;49.010;12.034;2022-07-23T04:45:54;9.60;;;7.43;;
20203;SDS011;10261;49.010;12.034;2022-07-23T04:46:57;9.88;;;7.97;;
20203;SDS011;10261;49.010;12.034;2022-07-23T04:48:00;9.88;;;7.32;;
20203;SDS011;10261;49.010;12.034;2022-07-23T04:49:02;10.40;;;8.10;;
20203;SDS011;10261;49.010;12.034;2022-07-23T04:50:07;12.77;;;7.90;;
20203;SDS011;10261;49.010;12.034;2022-07-23T04:51:10;10.30;;;7.57;;
20203;SDS011;10261;49.010;12.034;2022-07-23T04:52:12;7.22;;;6.53;;
20203;SDS011;10261;49.010;12.034;2022-07-23T04:53:16;8.93;;;7.78;;
20203;SDS011;10261;49.010;12.034;2022-07-23T04:54:19;8.65;;;7.72;;
20203;SDS011;10261;49.010;12.034;2022-07-23T04:55:22;9.48;;;8.05;;
20203;SDS011;10261;49.010;12.034;2022-07-23T04:56:24;9.13;;;8.18;;
20203;SDS011;10261;49.010;12.034;2022-07-23T04:57:27;8.48;;;7.60;;
20203;SDS011;10261;49.010;12.034;2022-07-23T04:58:29;9.05;;;8.02;;
20203;SDS011;10261;49.010;12.034;2022-07-23T04:59:32;9.57;;;8.57;;
20203;SDS011;10261;49.010;12.034;2022-07-23T05:00:34;9.68;;;7.57;;
20203;SDS011;10261;49.010;12.034;2022-07-23T05:01:38;12.45;;;8.82;;
20203;SDS011;10261;49.010;12.034;2022-07-23T05:02:41;9.98;;;8.38;;
20203;SDS011;10261;49.010;12.034;2022-07-23T05:03:44;10.80;;;8.50;;
20203;SDS011;10261;49.010;12.034;2022-07-23T05:04:46;10.57;;;7.75;;
20203;SDS011;10261;49.010;12.034;2022-07-23T05:05:49;12.80;;;8.48;;
20203;SDS011;10261;49.010;12.034;2022-07-23T05:06:51;8.38;;;7.57;;
20203;SDS011;10261;49.010;12.034;2022-07-23T05:07:54;18.67;;;7.60;;
20203;SDS011;10261;49.010;12.034;2022-07-23T05:08:56;9.98;;;7.70;;
20203;SDS011;10261;49.010;12.034;2022-07-23T05:10:00;8.77;;;7.78;;
20203;SDS011;10261;49.010;12.034;2022-07-23T05:11:02;8.20;;;7.35;;
20203;SDS011;10261;49.010;12.034;2022-07-23T05:12:05;8.00;;;7.18;;
20203;SDS011;10261;49.010;12.034;2022-07-23T05:13:07;9.05;;;7.40;;
20203;SDS011;10261;49.010;12.034;2022-07-23T05:14:10;7.75;;;6.97;;
20203;SDS011;10261;49.010;12.034;2022-07-23T05:15:13;9.23;;;7.22;;
20203;SDS011;10261;49.010;12.034;2022-07-23T05:16:16;7.70;;;6.90;;
20203;SDS011;10261;49.010;12.034;2022-07-23T05:17:20;10.73;;;8.20;;
20203;SDS011;10261;49.010;12.034;2022-07-23T05:18:23;8.18;;;7.13;;
20203;SDS011;10261;49.010;12.034;2022-07-23T05:19:26;8.02;;;7.15;;
20203;SDS011;10261;49.010;12.034;2022-07-23T05:20:28;9.30;;;7.10;;
20203;SDS011;10261;49.010;12.034;2022-07-23T05:21:31;7.50;;;6.70;;
20203;SDS011;10261;49.010;12.034;2022-07-23T05:22:33;8.35;;;6.50;;
20203;SDS011;10261;49.010;12.034;2022-07-23T05:23:36;7.30;;;6.60;;
20203;SDS011;10261;49.010;12.034;2022-07-23T05:24:38;8.40;;;7.55;;
20203;SDS011;10261;49.010;12.034;2022-07-23T05:25:41;8.07;;;6.97;;
20203;SDS011;10261;49.010;12.034;2022-07-23T05:26:43;9.52;;;7.80;;
20203;SDS011;10261;49.010;12.034;2022-07-23T05:27:47;8.55;;;7.65;;
20203;SDS011;10261;49.010;12.034;2022-07-23T05:28:49;10.15;;;7.72;;
20203;SDS011;10261;49.010;12.034;2022-07-23T05:29:52;7.60;;;6.90;;
20203;SDS011;10261;49.010;12.034;2022-07-23T05:30:54;8.45;;;7.55;;
20203;SDS011;10261;49.010;12.034;2022-07-23T05:31:57;11.20;;;6.97;;
20203;SDS011;10261;49.010;12.034;2022-07-23T05:32:59;10.25;;;7.10;;
20203;SDS011;10261;49.010;12.034;2022-07-23T05:34:04;10.02;;;7.28;;
20203;SDS011;10261;49.010;12.034;2022-07-23T05:35:06;8.05;;;7.25;;
20203;SDS011;10261;49.010;12.034;2022-07-23T05:36:10;8.50;;;7.70;;
20203;SDS011;10261;49.010;12.034;2022-07-23T05:37:12;10.50;;;6.90;;
20203;SDS011;10261;49.010;12.034;2022-07-23T05:38:15;10.95;;;7.10;;
20203;SDS011;10261;49.010;12.034;2022-07-23T05:39:17;13.52;;;7.00;;
20203;SDS011;10261;49.010;12.034;2022-07-23T05:40:20;11.02;;;6.85;;
20203;SDS011;10261;49.010;12.034;2022-07-23T05:41:24;8.55;;;7.63;;
20203;SDS011;10261;49.010;12.034;2022-07-23T05:42:26;7.97;;;6.97;;
20203;SDS011;10261;49.010;12.034;2022-07-23T05:43:29;13.00;;;7.82;;
20203;SDS011;10261;49.010;12.034;2022-07-23T05:44:31;10.45;;;7.32;;
20203;SDS011;10261;49.010;12.034;2022-07-23T05:45:35;8.40;;;7.30;;
20203;SDS011;10261;49.010;12.034;2022-07-23T05:46:37;7.10;;;6.40;;
20203;SDS011;10261;49.010;12.034;2022-07-23T05:47:41;9.80;;;7.43;;
20203;SDS011;10261;49.010;12.034;2022-07-23T05:48:44;8.32;;;7.43;;
20203;SDS011;10261;49.010;12.034;2022-07-23T05:49:52;8.15;;;7.15;;
20203;SDS011;10261;49.010;12.034;2022-07-23T05:50:54;13.18;;;7.20;;
20203;SDS011;10261;49.010;12.034;2022-07-23T05:51:57;10.00;;;7.25;;
20203;SDS011;10261;49.010;12.034;2022-07-23T05:53:00;8.63;;;7.68;;
20203;SDS011;10261;49.010;12.034;2022-07-23T05:54:03;10.35;;;7.97;;
20203;SDS011;10261;49.010;12.034;2022-07-23T05:55:05;6.68;;;6.00;;
20203;SDS011;10261;49.010;12.034;2022-07-23T05:56:09;9.40;;;7.63;;
20203;SDS011;10261;49.010;12.034;2022-07-23T05:57:11;7.70;;;6.60;;
20203;SDS011;10261;49.010;12.034;2022-07-23T05:58:14;9.98;;;7.30;;
20203;SDS011;10261;49.010;12.034;2022-07-23T05:59:16;8.13;;;7.43;;
20203;SDS011;10261;49.010;12.034;2022-07-23T06:00:19;18.85;;;8.30;;
20203;SDS011;10261;49.010;12.034;2022-07-23T06:01:21;7.40;;;6.70;;
20203;SDS011;10261;49.010;12.034;2022-07-23T06:02:24;8.20;;;7.25;;
20203;SDS011;10261;49.010;12.034;2022-07-23T06:03:26;8.05;;;7.25;;
20203;SDS011;10261;49.010;12.034;2022-07-23T06:04:29;11.38;;;7.90;;
20203;SDS011;10261;49.010;12.034;2022-07-23T06:05:34;8.45;;;7.20;;
20203;SDS011;10261;49.010;12.034;2022-07-23T06:06:36;7.65;;;6.95;;
20203;SDS011;10261;49.010;12.034;2022-07-23T06:07:39;9.65;;;7.00;;
20203;SDS011;10261;49.010;12.034;2022-07-23T06:08:41;9.60;;;6.88;;